Airfield :
LOGIN :

Register | Disclaimer

   EN    FR    IT 

 










Legend :    VFR   Marginal VFR   IFR   Intensive IFR   Very Intensive IFR
Visi :
Ceiling :
>= 8 km
>= 3000ft
5 to 8 km
1000 to 3000 ft
1500m to 5 km
500 to 1000 ft
800 to 1500m
200 to 500 ft
< 800m
< 200 ft
Symbols :   Thunderstorms  Fog  Heavy snow  Heavy precipitations  Wind > 20 kt
SIGMETs :     Misc.  Thunderstorms  Icing  Turbulence  Mountain Waves  Volcanic Ashes






- Airport Elevation : 20 ft


EBFN - Koksijde

CURRENT METAR :
  • 291125Z 33005KT 9999 FEW030TCU SCT060 15/08 Q1003 BLU BLU

EXPIRED METARs :
  • 291055Z 31005KT 9999 FEW030TCU SCT060 15/08 Q1002 BLU BLU
  • 291025Z 33004KT 9999 FEW030TCU SCT060 13/07 Q1002 BLU BLU
  • 291021Z 32005KT 9999 FEW030TCU SCT060 13/07 Q1002 BLU BLU
  • 290955Z 32005KT 9999 FEW030TCU SCT060 13/08 Q1002 BLU BLU
  • 290855Z VRB02KT 9999 FEW030 BKN060 12/09 Q1002 BLU BLU
  • 290833Z VRB02KT 9999 FEW030 BKN060 11/09 Q1001 BLU BLU

TAF TAF EBFN
Valid from the 29 at 10:00 until the 29 at 19:00 UTC


290841Z 2910/2919 28007KT 9999 FEW030 SCT060
TEMPO 2910/2919 5000 -SHRA SCT020TCU BKN030
PROB30
TEMPO 2910/2914 3500 TSRA FEW007 SCT018CB BKN030
BECMG 2913/2915 34013KT



MET'MAP, your aeronautical weather chart ! - Copyright ORBIFLY December 2007 - Disclaimer

ORBIFLY MET'MAP TEAM :

Programming & Development : Alexandra Zaïnal
Original concept : Baudouin d'Aumeries
Technical & hardware support : Manuel Goepfert
Assistance : Marc-Olivier Méhu




SOURCES & CREDITS :

   NOAA